METAR - Iceland

Last updated 12.05.2021 - at. 02:33

SIGMET for the last six hours

No SIGMET messages last 6 hours.

METAR from the last three hours

AerodromeTimeMessage
BIAR2021-05-12 02.00METAR BIAR 120200Z 00000KT CAVOK M03/M07 Q1022
BIAR2021-05-12 01.00METAR BIAR 120100Z 00000KT CAVOK M01/M07 Q1022
BIAR2021-05-12 00.00METAR BIAR 120000Z VRB05KT CAVOK M01/M07 Q1022
BIEG2021-05-12 02.00METAR BIEG 120200Z 36004KT 9999 BKN032 M02/M06 Q1023
BIEG2021-05-12 01.00METAR BIEG 120100Z 36004KT 9999 BKN031 M02/M06 Q1023
BIEG2021-05-12 00.00METAR BIEG 120000Z 33003KT 9999 BKN033 M02/M05 Q1023
BIKF2021-05-12 02.30METAR BIKF 120230Z 23001KT 9999 FEW032 SCT230 03/01 Q1021
BIKF2021-05-12 02.00METAR BIKF 120200Z 27003KT 9999 FEW022 SCT230 03/00 Q1021
BIKF2021-05-12 01.30METAR BIKF 120130Z 29003KT 9999 FEW022 SCT190 03/00 Q1021
BIKF2021-05-12 01.00METAR BIKF 120100Z 30004KT 9999 FEW022 03/01 Q1021
BIKF2021-05-12 00.30METAR BIKF 120030Z 31006KT 9999 FEW022 02/00 Q1021
BIKF2021-05-12 00.00METAR BIKF 120000Z 31005KT 9999 FEW022 02/M01 Q1021
BIRK2021-05-12 02.00METAR BIRK 120200Z 14003KT CAVOK 01/M04 Q1021
BIRK2021-05-12 01.00METAR BIRK 120100Z 15003KT CAVOK 02/M03 Q1021
BIRK2021-05-12 00.00METAR BIRK 120000Z 00000KT 9999 FEW035 03/M03 Q1021





Other related web sites


This website is built with Eplica CMS